Lord Nelson — GHJV — position and weather

sailwx.info

Track history (hours):
 
Tides and Currents Weather Stations Pressure Air Temp Water Temp Dewpoint Dewpoint Depression Visibility Wind Speed Wind Dir Waves Ship Positions

Lord Nelson (United Kingdom)

Ship's website: http://www.jst.org.uk/

Last reported at 2019-Feb-17 16:29 UTC. Time now 2019-Feb-17 16:53 UTC.
Position N 18°23' W 064°43'.

Length 54.7 m; beam 9 m; draft 4.1 m.

Type: Sailing vessel. MMSI: 232003690.

Date/timePositionNaut miles runAvg speedWind from/ knotsBaromVisibWave heightAir tempDewpointWater temp
2019-Feb-17 16:29N 18°23' W 064°43'0 0.0
2019-Feb-17 15:59N 18°23' W 064°43'0 0.0
2019-Feb-17 15:29N 18°23' W 064°43'0 0.0
2019-Feb-17 14:59N 18°23' W 064°43'0 0.2
2019-Feb-17 14:23N 18°23' W 064°43'0 0.0
2019-Feb-17 13:59N 18°23' W 064°43'0 0.0
2019-Feb-17 13:29N 18°23' W 064°43'0 0.0
2019-Feb-17 12:59N 18°23' W 064°43'0 0.0
2019-Feb-17 12:20N 18°23' W 064°43'0 0.0
2019-Feb-17 11:56N 18°23' W 064°43'0 0.0
2019-Feb-17 11:20N 18°23' W 064°43'0 0.0
2019-Feb-17 10:56N 18°23' W 064°43'0 0.0
2019-Feb-17 10:26N 18°23' W 064°43'0 0.0
2019-Feb-17 09:56N 18°23' W 064°43'0 0.0
2019-Feb-17 09:14N 18°23' W 064°43'0 0.0
2019-Feb-17 08:44N 18°23' W 064°43'0 0.0
2019-Feb-17 08:26N 18°23' W 064°43'0 0.1
2019-Feb-17 07:50N 18°23' W 064°43'0 0.0
2019-Feb-17 07:26N 18°23' W 064°43'0 0.0
2019-Feb-17 06:50N 18°23' W 064°43'0 0.0
2019-Feb-17 06:20N 18°23' W 064°43'0 0.1
2019-Feb-17 05:56N 18°23' W 064°43'0 0.0
2019-Feb-17 05:20N 18°23' W 064°43'0 0.0
2019-Feb-17 04:50N 18°23' W 064°43'0 0.0
2019-Feb-17 04:08N 18°23' W 064°43'0 0.1
2019-Feb-17 03:56N 18°23' W 064°43'0 0.1
2019-Feb-17 03:26N 18°23' W 064°43'0 0.0
2019-Feb-17 02:56N 18°23' W 064°43'0 0.0
2019-Feb-17 02:26N 18°23' W 064°43'0 0.0
2019-Feb-17 01:44N 18°23' W 064°43'0 0.0
2019-Feb-17 01:26N 18°23' W 064°43'0 0.0
2019-Feb-17 00:56N 18°23' W 064°43'0 0.0
2019-Feb-17 00:26N 18°23' W 064°43'0 0.1
2019-Feb-16 23:56N 18°23' W 064°43'0 0.1
2019-Feb-16 23:26N 18°23' W 064°43'0 0.0
2019-Feb-16 22:56N 18°23' W 064°43'0 0.0
2019-Feb-16 22:26N 18°23' W 064°43'0 0.0
2019-Feb-16 21:56N 18°23' W 064°43'0 0.0
2019-Feb-16 21:20N 18°23' W 064°43'0 0.1
2019-Feb-16 20:56N 18°23' W 064°43'0 0.1
2019-Feb-16 20:26N 18°23' W 064°43'0 0.0
2019-Feb-16 19:56N 18°23' W 064°43'0 0.0
2019-Feb-16 19:26N 18°23' W 064°43'0 0.0
2019-Feb-16 18:56N 18°23' W 064°43'0 0.0
2019-Feb-16 18:26N 18°23' W 064°43'0 0.0
2019-Feb-16 17:50N 18°23' W 064°43'0 0.0
2019-Feb-16 17:20N 18°23' W 064°43'0 0.0
2019-Feb-16 16:55N 18°23' W 064°43'0 0.0
2019-Feb-16 16:13N 18°23' W 064°43'0 0.0
2019-Feb-16 15:55N 18°23' W 064°43'1 2.5
2019-Feb-16 15:30N 18°23' W 064°42'4 7.6
2019-Feb-16 14:58N 18°22' W 064°37'4 7.2
2019-Feb-16 14:28N 18°23' W 064°34'67 3.8
2019-Feb-15 20:34N 18°13' W 063°24'1 5.1
2019-Feb-15 20:24N 18°12' W 063°23'2 5.3
2019-Feb-15 19:58N 18°10' W 063°21'3 4.9
2019-Feb-15 19:24N 18°09' W 063°19'2 4.7
2019-Feb-15 18:56N 18°07' W 063°17'2 4.3
2019-Feb-15 18:30N 18°06' W 063°16'3 5.2
2019-Feb-15 17:56N 18°04' W 063°13'3 5.3
2019-Feb-15 17:20N 18°02' W 063°11'2 5.6
2019-Feb-15 16:56N 18°01' W 063°09'3 5.4
2019-Feb-15 16:18N 17°58' W 063°06'3 5.3
2019-Feb-15 15:38N 17°56' W 063°03'1 5.1
2019-Feb-15 15:30N 17°56' W 063°03'3 4.2
2019-Feb-15 14:45N 17°53' W 063°01'2 4.5
2019-Feb-15 14:23N 17°52' W 062°59'3 4.7
2019-Feb-15 13:49N 17°50' W 062°57'1 4.1
2019-Feb-15 13:29N 17°49' W 062°56'3 4.7
2019-Feb-15 12:56N 17°48' W 062°54'3 5.0
2019-Feb-15 12:22N 17°46' W 062°52'  
2019-Feb-07 19:00N 17°42' W 062°18'   100 / 71015.0 5.4 28.522.725.4
Track history (hours):
 
Tides and Currents Weather Stations Pressure Air Temp Water Temp Dewpoint Dewpoint Depression Visibility Wind Speed Wind Dir Waves Ship Positions

Lord Nelson (United Kingdom)

Ship's website: http://www.jst.org.uk/

Last reported at 2019-Feb-17 16:29 UTC. Time now 2019-Feb-17 16:53 UTC.
Position N 18°23' W 064°43'.

Length 54.7 m; beam 9 m; draft 4.1 m.

Type: Sailing vessel. MMSI: 232003690.

Date/timePositionNaut miles runAvg speedWind from/ knotsBaromVisibWave heightAir tempDewpointWater temp
2019-Feb-17 16:29N 18°23' W 064°43'0 0.0
2019-Feb-17 15:59N 18°23' W 064°43'0 0.0
2019-Feb-17 15:29N 18°23' W 064°43'0 0.0
2019-Feb-17 14:59N 18°23' W 064°43'0 0.2
2019-Feb-17 14:23N 18°23' W 064°43'0 0.0
2019-Feb-17 13:59N 18°23' W 064°43'0 0.0
2019-Feb-17 13:29N 18°23' W 064°43'0 0.0
2019-Feb-17 12:59N 18°23' W 064°43'0 0.0
2019-Feb-17 12:20N 18°23' W 064°43'0 0.0
2019-Feb-17 11:56N 18°23' W 064°43'0 0.0
2019-Feb-17 11:20N 18°23' W 064°43'0 0.0
2019-Feb-17 10:56N 18°23' W 064°43'0 0.0
2019-Feb-17 10:26N 18°23' W 064°43'0 0.0
2019-Feb-17 09:56N 18°23' W 064°43'0 0.0
2019-Feb-17 09:14N 18°23' W 064°43'0 0.0
2019-Feb-17 08:44N 18°23' W 064°43'0 0.0
2019-Feb-17 08:26N 18°23' W 064°43'0 0.1
2019-Feb-17 07:50N 18°23' W 064°43'0 0.0
2019-Feb-17 07:26N 18°23' W 064°43'0 0.0
2019-Feb-17 06:50N 18°23' W 064°43'0 0.0
2019-Feb-17 06:20N 18°23' W 064°43'0 0.1
2019-Feb-17 05:56N 18°23' W 064°43'0 0.0
2019-Feb-17 05:20N 18°23' W 064°43'0 0.0
2019-Feb-17 04:50N 18°23' W 064°43'0 0.0
2019-Feb-17 04:08N 18°23' W 064°43'0 0.1
2019-Feb-17 03:56N 18°23' W 064°43'0 0.1
2019-Feb-17 03:26N 18°23' W 064°43'0 0.0
2019-Feb-17 02:56N 18°23' W 064°43'0 0.0
2019-Feb-17 02:26N 18°23' W 064°43'0 0.0
2019-Feb-17 01:44N 18°23' W 064°43'0 0.0
2019-Feb-17 01:26N 18°23' W 064°43'0 0.0
2019-Feb-17 00:56N 18°23' W 064°43'0 0.0
2019-Feb-17 00:26N 18°23' W 064°43'0 0.1
2019-Feb-16 23:56N 18°23' W 064°43'0 0.1
2019-Feb-16 23:26N 18°23' W 064°43'0 0.0
2019-Feb-16 22:56N 18°23' W 064°43'0 0.0
2019-Feb-16 22:26N 18°23' W 064°43'0 0.0
2019-Feb-16 21:56N 18°23' W 064°43'0 0.0
2019-Feb-16 21:20N 18°23' W 064°43'0 0.1
2019-Feb-16 20:56N 18°23' W 064°43'0 0.1
2019-Feb-16 20:26N 18°23' W 064°43'0 0.0
2019-Feb-16 19:56N 18°23' W 064°43'0 0.0
2019-Feb-16 19:26N 18°23' W 064°43'0 0.0
2019-Feb-16 18:56N 18°23' W 064°43'0 0.0
2019-Feb-16 18:26N 18°23' W 064°43'0 0.0
2019-Feb-16 17:50N 18°23' W 064°43'0 0.0
2019-Feb-16 17:20N 18°23' W 064°43'0 0.0
2019-Feb-16 16:55N 18°23' W 064°43'0 0.0
2019-Feb-16 16:13N 18°23' W 064°43'0 0.0
2019-Feb-16 15:55N 18°23' W 064°43'1 2.5
2019-Feb-16 15:30N 18°23' W 064°42'4 7.6
2019-Feb-16 14:58N 18°22' W 064°37'4 7.2
2019-Feb-16 14:28N 18°23' W 064°34'67 3.8
2019-Feb-15 20:34N 18°13' W 063°24'1 5.1
2019-Feb-15 20:24N 18°12' W 063°23'2 5.3
2019-Feb-15 19:58N 18°10' W 063°21'3 4.9
2019-Feb-15 19:24N 18°09' W 063°19'2 4.7
2019-Feb-15 18:56N 18°07' W 063°17'2 4.3
2019-Feb-15 18:30N 18°06' W 063°16'3 5.2
2019-Feb-15 17:56N 18°04' W 063°13'3 5.3
2019-Feb-15 17:20N 18°02' W 063°11'2 5.6
2019-Feb-15 16:56N 18°01' W 063°09'3 5.4
2019-Feb-15 16:18N 17°58' W 063°06'3 5.3
2019-Feb-15 15:38N 17°56' W 063°03'1 5.1
2019-Feb-15 15:30N 17°56' W 063°03'3 4.2
2019-Feb-15 14:45N 17°53' W 063°01'2 4.5
2019-Feb-15 14:23N 17°52' W 062°59'3 4.7
2019-Feb-15 13:49N 17°50' W 062°57'1 4.1
2019-Feb-15 13:29N 17°49' W 062°56'3 4.7
2019-Feb-15 12:56N 17°48' W 062°54'3 5.0
2019-Feb-15 12:22N 17°46' W 062°52'  
2019-Feb-07 19:00N 17°42' W 062°18'   100 / 71015.0 5.4 28.522.725.4

Dump ship's entire track history